Time;durP1;ratioP1;P1;durP2;ratioP2;P2;SDS_P1;SDS_P2;PMS_P1;PMS_P2;Temp;Humidity;BMP_temperature;BMP_pressure;BME280_temperature;BME280_humidity;BME280_pressure;Samples;Min_cycle;Max_cycle;Signal;HPM_P1;HPM_P2
2022/07/06 00:01:28;;;;;;;10.40;6.30;;;28.60;94.30;;;;;;1881665;76;21150;-80
2022/07/06 00:03:59;;;;;;;13.03;6.97;;;28.60;94.40;;;;;;1864053;76;21108;-80
2022/07/06 00:06:31;;;;;;;8.45;5.35;;;28.60;94.40;;;;;;1911114;74;21122;-79
2022/07/06 00:09:02;;;;;;;11.83;5.95;;;28.60;94.30;;;;;;1879564;75;21501;-79
2022/07/06 00:11:33;;;;;;;11.57;5.87;;;28.60;94.60;;;;;;1921376;74;21665;-79
2022/07/06 00:14:05;;;;;;;10.00;5.60;;;28.60;94.60;;;;;;1855048;76;21587;-78
2022/07/06 00:16:36;;;;;;;11.83;5.83;;;28.60;94.60;;;;;;1906087;74;21231;-80
2022/07/06 00:19:07;;;;;;;13.05;6.22;;;28.60;94.70;;;;;;1879844;76;21196;-79
2022/07/06 00:21:37;;;;;;;13.78;6.33;;;28.60;94.50;;;;;;1847817;76;21089;-79
2022/07/06 00:24:09;;;;;;;12.10;6.72;;;28.60;94.70;;;;;;1900409;74;21134;-80
2022/07/06 00:26:40;;;;;;;10.65;6.10;;;28.60;94.70;;;;;;1899611;75;21483;-76
2022/07/06 00:29:10;;;;;;;9.25;5.30;;;28.70;94.70;;;;;;1907481;74;21551;-74
2022/07/06 00:31:42;;;;;;;9.83;5.47;;;28.60;94.60;;;;;;1899096;73;21217;-75
2022/07/06 00:34:12;;;;;;;13.58;6.62;;;28.60;94.70;;;;;;1855512;76;21927;-76
2022/07/06 00:36:43;;;;;;;11.38;6.90;;;28.60;94.70;;;;;;1854019;76;21186;-76
2022/07/06 00:39:14;;;;;;;10.10;5.92;;;28.60;94.60;;;;;;1889360;74;21160;-76
2022/07/06 00:41:45;;;;;;;9.20;6.97;;;28.60;94.40;;;;;;1888610;74;21194;-76
2022/07/06 00:44:17;;;;;;;10.15;6.42;;;28.70;94.50;;;;;;1898018;74;21195;-76
2022/07/06 00:46:47;;;;;;;9.40;6.60;;;28.70;94.60;;;;;;1891744;75;21182;-76
2022/07/06 00:51:51;;;;;;;11.20;6.45;;;28.80;94.60;;;;;;1826907;76;21627;-74
2022/07/06 00:54:21;;;;;;;10.53;5.50;;;28.80;94.50;;;;;;1857015;76;21681;-74
2022/07/06 00:56:53;;;;;;;11.08;6.28;;;28.80;94.40;;;;;;1855062;76;21540;-73
2022/07/06 00:59:25;;;;;;;11.38;6.22;;;28.80;94.50;;;;;;1834949;76;21193;-75
2022/07/06 01:01:56;;;;;;;9.98;5.75;;;28.80;94.20;;;;;;1832741;76;21097;-74
2022/07/06 01:04:28;;;;;;;12.98;6.10;;;28.90;94.30;;;;;;1857314;77;21629;-75
2022/07/06 01:06:59;;;;;;;9.60;5.25;;;28.90;94.20;;;;;;1823481;77;21772;-76
2022/07/06 01:09:30;;;;;;;11.28;5.35;;;28.90;93.90;;;;;;1832407;77;21163;-76
2022/07/06 01:12:01;;;;;;;10.50;5.15;;;29.00;94.20;;;;;;1836617;76;21536;-77
2022/07/06 01:14:33;;;;;;;12.05;5.40;;;29.00;93.90;;;;;;1853833;75;21183;-76
2022/07/06 01:17:05;;;;;;;11.30;5.60;;;29.00;93.60;;;;;;1856143;75;21187;-75
2022/07/06 01:19:35;;;;;;;9.65;5.20;;;29.10;93.70;;;;;;1829540;77;21179;-75
2022/07/06 01:22:06;;;;;;;10.78;5.55;;;29.10;93.80;;;;;;1851407;77;21108;-75
2022/07/06 01:24:38;;;;;;;10.60;5.30;;;29.10;93.80;;;;;;1853564;75;21676;-74
2022/07/06 01:27:09;;;;;;;9.35;5.58;;;29.10;93.40;;;;;;1855616;76;21614;-74
2022/07/06 01:29:40;;;;;;;10.68;5.45;;;29.20;93.60;;;;;;1854802;75;21080;-74
2022/07/06 01:32:11;;;;;;;7.53;4.87;;;29.20;93.70;;;;;;1851322;75;21228;-73
2022/07/06 01:34:52;;;;;;;11.20;5.87;;;29.30;93.40;;;;;;1855067;75;21098;-75
2022/07/06 01:37:23;;;;;;;7.85;5.15;;;29.30;93.30;;;;;;1859265;75;21171;-75
2022/07/06 01:39:56;;;;;;;7.17;5.28;;;29.40;93.40;;;;;;1857524;75;21543;-75
2022/07/06 01:42:27;;;;;;;11.78;7.45;;;29.40;93.40;;;;;;1848524;76;21159;-74
2022/07/06 01:44:58;;;;;;;13.83;7.03;;;29.50;93.40;;;;;;1821580;77;21135;-73
2022/07/06 01:47:29;;;;;;;13.25;5.85;;;29.50;93.30;;;;;;1850113;76;21186;-75
2022/07/06 01:50:01;;;;;;;9.58;5.50;;;29.50;93.30;;;;;;1874698;75;21138;-74
2022/07/06 01:52:33;;;;;;;13.28;5.92;;;29.50;93.60;;;;;;1848499;76;21180;-76
2022/07/06 01:55:05;;;;;;;8.90;5.53;;;29.50;93.50;;;;;;1888333;75;21573;-75
2022/07/06 01:57:36;;;;;;;10.58;5.95;;;29.60;93.50;;;;;;1886140;75;21178;-76
2022/07/06 02:00:09;;;;;;;9.58;5.70;;;29.60;93.50;;;;;;1885071;75;21144;-76
2022/07/06 02:02:40;;;;;;;10.65;5.45;;;29.60;93.40;;;;;;1883571;75;21151;-77
2022/07/06 02:05:11;;;;;;;13.43;6.58;;;29.70;93.20;;;;;;1884637;75;21133;-76
2022/07/06 02:07:41;;;;;;;11.90;6.05;;;29.70;93.20;;;;;;1878913;75;21167;-74
2022/07/06 02:10:36;;;;;;;9.50;5.72;;;29.70;93.20;;;;;;1891122;74;21200;-75
2022/07/06 02:13:02;;;;;;;9.75;5.37;;;29.70;93.30;;;;;;1845279;75;21798;-77
2022/07/06 02:15:33;;;;;;;12.93;6.15;;;29.70;93.30;;;;;;1848115;77;21090;-74
2022/07/06 02:18:04;;;;;;;12.07;6.53;;;29.70;93.30;;;;;;1832684;76;21138;-75
2022/07/06 02:20:35;;;;;;;10.78;5.47;;;29.80;93.10;;;;;;1883902;75;21177;-75
2022/07/06 02:23:06;;;;;;;10.53;5.45;;;29.80;93.10;;;;;;1881956;75;21074;-76
2022/07/06 02:25:37;;;;;;;10.90;5.80;;;29.80;93.00;;;;;;1883847;74;21215;-75
2022/07/06 02:28:08;;;;;;;12.00;5.87;;;29.90;93.00;;;;;;1872595;75;21129;-75
2022/07/06 02:30:39;;;;;;;15.10;6.65;;;29.90;93.10;;;;;;1851534;76;21128;-74
2022/07/06 02:33:09;;;;;;;15.23;6.95;;;29.90;93.10;;;;;;1857375;76;21133;-73
2022/07/06 02:35:42;;;;;;;12.10;7.10;;;29.90;93.00;;;;;;1868369;76;21133;-84
2022/07/06 02:38:13;;;;;;;11.93;7.17;;;29.90;92.90;;;;;;1859066;76;21141;-81
2022/07/06 02:40:44;;;;;;;11.90;6.80;;;29.90;93.00;;;;;;1858427;76;21666;-82
2022/07/06 02:43:15;;;;;;;9.85;5.95;;;29.90;93.10;;;;;;1850659;76;21175;-82
2022/07/06 02:45:46;;;;;;;14.38;6.12;;;30.00;93.00;;;;;;1850587;75;21206;-82
2022/07/06 02:48:19;;;;;;;11.33;5.55;;;30.00;92.90;;;;;;1892776;75;21243;-81
2022/07/06 02:50:50;;;;;;;12.30;5.92;;;30.10;92.90;;;;;;1908492;74;21127;-82
2022/07/06 02:53:20;;;;;;;10.85;5.85;;;30.10;92.80;;;;;;1822502;76;21205;-82
2022/07/06 02:55:51;;;;;;;11.93;6.58;;;30.20;92.60;;;;;;1874038;75;21207;-83
2022/07/06 02:58:22;;;;;;;11.68;6.80;;;30.30;92.70;;;;;;1851130;76;21151;-83
2022/07/06 03:00:54;;;;;;;9.63;5.80;;;30.30;92.40;;;;;;1887156;75;21084;-83
2022/07/06 03:03:25;;;;;;;10.32;6.47;;;30.40;92.50;;;;;;1887757;76;21137;-83
2022/07/06 03:05:56;;;;;;;11.53;6.12;;;30.40;92.20;;;;;;1869062;76;21619;-83
2022/07/06 03:08:27;;;;;;;11.03;5.80;;;30.40;92.00;;;;;;1857054;76;21667;-82
2022/07/06 03:10:58;;;;;;;11.18;6.12;;;30.50;92.00;;;;;;1860940;76;21063;-84
2022/07/06 03:13:29;;;;;;;9.83;5.65;;;30.50;92.30;;;;;;1902672;73;21121;-83
2022/07/06 03:16:00;;;;;;;10.55;5.78;;;30.60;92.20;;;;;;1887669;75;21086;-83
2022/07/06 03:18:31;;;;;;;10.20;5.70;;;30.60;91.80;;;;;;1877290;74;21124;-83
2022/07/06 03:21:03;;;;;;;10.25;5.60;;;30.70;91.90;;;;;;1888570;74;21208;-82
2022/07/06 03:23:34;;;;;;;9.08;5.87;;;30.80;91.70;;;;;;1865436;76;21200;-82
2022/07/06 03:26:05;;;;;;;9.33;5.40;;;30.90;91.50;;;;;;1897475;75;21261;-81
2022/07/06 03:28:36;;;;;;;8.95;5.05;;;30.90;91.40;;;;;;1886188;75;21125;-82
2022/07/06 03:31:07;;;;;;;10.08;5.37;;;30.90;91.40;;;;;;1903670;74;21198;-83
2022/07/06 03:33:44;;;;;;;9.88;5.70;;;31.00;91.30;;;;;;1892189;75;21129;-82
2022/07/06 03:36:15;;;;;;;8.93;5.22;;;31.10;91.00;;;;;;1874602;74;21104;-82
2022/07/06 03:38:46;;;;;;;12.93;5.62;;;31.10;90.80;;;;;;1838615;76;21377;-82
2022/07/06 03:41:18;;;;;;;9.58;5.83;;;31.10;90.90;;;;;;1849469;76;21108;-82
2022/07/06 03:43:48;;;;;;;8.43;5.30;;;31.10;90.50;;;;;;1848119;76;21188;-82
2022/07/06 03:46:21;;;;;;;11.30;5.50;;;31.10;90.70;;;;;;1884419;76;21155;-83
2022/07/06 03:48:52;;;;;;;10.03;4.65;;;31.20;90.80;;;;;;1850018;76;21099;-83
2022/07/06 03:51:23;;;;;;;7.92;4.90;;;31.20;90.90;;;;;;1889618;75;21225;-81
2022/07/06 03:53:53;;;;;;;11.48;5.33;;;31.20;90.20;;;;;;1826119;76;21131;-83
2022/07/06 03:56:28;;;;;;;10.65;5.00;;;31.20;90.20;;;;;;1869152;76;21159;-81
2022/07/06 03:58:59;;;;;;;7.85;4.62;;;31.20;90.30;;;;;;1864267;75;21124;-82
2022/07/06 04:01:30;;;;;;;9.90;4.80;;;31.20;90.50;;;;;;1872657;75;21141;-80
2022/07/06 04:04:14;;;;;;;9.25;5.40;;;31.10;90.50;;;;;;1865889;76;21182;-80
2022/07/06 04:06:39;;;;;;;9.73;4.92;;;31.10;90.60;;;;;;1847374;76;21127;-81
2022/07/06 04:09:13;;;;;;;11.60;5.12;;;31.20;90.60;;;;;;1844878;76;21169;-81
2022/07/06 04:11:44;;;;;;;8.55;5.03;;;31.20;90.60;;;;;;1897155;75;21169;-82
2022/07/06 04:14:15;;;;;;;9.38;4.37;;;31.30;90.40;;;;;;1894659;75;21166;-83
2022/07/06 04:16:46;;;;;;;7.90;4.40;;;31.40;90.40;;;;;;1869033;75;21155;-83
2022/07/06 04:19:17;;;;;;;8.98;4.30;;;31.50;89.90;;;;;;1858174;76;21908;-86
2022/07/06 04:21:51;;;;;;;10.23;4.40;;;31.60;89.10;;;;;;1872804;75;21184;-84
2022/07/06 04:24:24;;;;;;;7.87;4.10;;;31.70;88.90;;;;;;1872275;75;21210;-84
2022/07/06 04:26:58;;;;;;;7.72;4.35;;;31.80;88.30;;;;;;1865114;75;21140;-83
2022/07/06 04:29:29;;;;;;;9.23;4.00;;;31.80;88.10;;;;;;1865251;75;21177;-83
2022/07/06 04:32:00;;;;;;;9.43;4.47;;;31.90;87.60;;;;;;1870507;75;21258;-83
2022/07/06 04:34:31;;;;;;;7.35;4.22;;;31.90;88.10;;;;;;1868676;75;21228;-82
2022/07/06 04:37:02;;;;;;;7.42;4.08;;;32.00;87.80;;;;;;1885245;75;21961;-81
2022/07/06 04:39:34;;;;;;;9.05;4.33;;;32.00;87.00;;;;;;1892663;75;21536;-82
2022/07/06 04:42:05;;;;;;;9.08;4.20;;;32.10;88.00;;;;;;1864860;76;21825;-82
2022/07/06 04:44:46;;;;;;;8.35;4.50;;;32.10;86.80;;;;;;1875109;75;21150;-81
2022/07/06 04:47:19;;;;;;;7.90;4.47;;;32.20;86.60;;;;;;1853258;76;21127;-81
2022/07/06 04:49:51;;;;;;;6.67;4.08;;;32.20;85.80;;;;;;1842396;75;21104;-80
2022/07/06 04:52:22;;;;;;;7.05;4.53;;;32.10;85.80;;;;;;1863521;76;21176;-80
2022/07/06 04:54:56;;;;;;;6.17;3.45;;;32.10;86.00;;;;;;1863961;76;21309;-81
2022/07/06 04:57:29;;;;;;;7.15;3.92;;;32.20;85.40;;;;;;1835840;77;21553;-81
2022/07/06 05:00:01;;;;;;;6.25;3.80;;;32.20;85.10;;;;;;1858517;76;21201;-81
2022/07/06 05:02:31;;;;;;;9.05;4.00;;;32.20;84.90;;;;;;1866602;76;21137;-81
2022/07/06 05:05:02;;;;;;;6.65;4.12;;;32.20;85.10;;;;;;1865454;76;21085;-82
2022/07/06 05:07:38;;;;;;;6.67;3.30;;;32.30;85.00;;;;;;1862350;76;21141;-81
2022/07/06 05:10:07;;;;;;;6.30;3.95;;;32.40;84.40;;;;;;1856679;76;21810;-80
2022/07/06 05:12:39;;;;;;;8.68;3.85;;;32.40;84.60;;;;;;1855128;76;21179;-81
2022/07/06 05:15:10;;;;;;;6.70;4.03;;;32.40;84.00;;;;;;1862901;76;22085;-80
2022/07/06 05:17:41;;;;;;;9.93;4.17;;;32.40;84.10;;;;;;1856608;76;21612;-80
2022/07/06 05:20:12;;;;;;;7.42;3.58;;;32.40;84.20;;;;;;1850639;76;21892;-81
2022/07/06 05:22:43;;;;;;;7.80;3.83;;;32.50;84.60;;;;;;1856881;76;21293;-82
2022/07/06 05:25:15;;;;;;;9.18;5.08;;;32.70;84.40;;;;;;1851633;76;21211;-82
2022/07/06 05:27:46;;;;;;;9.35;4.50;;;32.90;83.40;;;;;;1849812;76;21192;-82
2022/07/06 05:30:28;;;;;;;15.53;6.62;;;33.00;83.00;;;;;;1854929;76;21149;-79
2022/07/06 05:33:00;;;;;;;10.88;7.28;;;33.20;82.40;;;;;;1853467;76;21251;-80
2022/07/06 05:35:34;;;;;;;10.55;5.42;;;33.30;81.60;;;;;;1846357;76;21173;-80
2022/07/06 05:38:06;;;;;;;9.38;5.80;;;33.40;82.30;;;;;;1850574;76;21082;-80
2022/07/06 05:40:38;;;;;;;7.92;3.87;;;33.40;81.10;;;;;;1864502;76;21622;-81
2022/07/06 05:43:09;;;;;;;7.25;3.67;;;33.30;81.60;;;;;;1848809;76;21227;-81
2022/07/06 05:45:40;;;;;;;7.95;4.78;;;33.20;80.30;;;;;;1860786;76;21592;-81
2022/07/06 05:50:43;;;;;;;7.90;4.53;;;33.00;81.30;;;;;;1847441;76;21196;-81
2022/07/06 05:53:16;;;;;;;11.22;6.08;;;33.00;81.80;;;;;;1853960;76;21149;-81
2022/07/06 05:55:52;;;;;;;10.25;4.92;;;33.00;82.60;;;;;;1846706;76;21131;-81
2022/07/06 05:58:24;;;;;;;8.28;4.00;;;32.90;82.90;;;;;;1841791;76;21128;-81
2022/07/06 06:00:58;;;;;;;11.68;4.97;;;32.80;82.90;;;;;;1839545;76;21075;-80
2022/07/06 06:03:28;;;;;;;11.03;5.33;;;32.70;83.20;;;;;;1826473;76;21266;-81
2022/07/06 06:06:01;;;;;;;11.43;4.80;;;32.70;83.60;;;;;;1851578;76;21148;-82
2022/07/06 06:08:34;;;;;;;10.18;4.05;;;32.60;83.70;;;;;;1854981;76;21623;-80
2022/07/06 06:11:06;;;;;;;11.05;4.35;;;32.70;83.40;;;;;;1842923;76;21167;-80
2022/07/06 06:13:38;;;;;;;7.25;3.67;;;32.80;83.40;;;;;;1840283;76;21166;-81
2022/07/06 06:16:09;;;;;;;8.13;4.20;;;32.90;82.20;;;;;;1847794;76;21133;-81
2022/07/06 06:18:41;;;;;;;8.18;4.12;;;32.90;82.50;;;;;;1847645;76;21202;-82
2022/07/06 06:21:12;;;;;;;8.25;3.83;;;33.00;82.70;;;;;;1846688;76;21627;-82
2022/07/06 06:23:44;;;;;;;4.95;3.60;;;33.00;82.30;;;;;;1877060;75;21206;-81
2022/07/06 06:26:20;;;;;;;6.28;3.67;;;33.00;81.80;;;;;;1844327;77;21095;-83
2022/07/06 06:28:59;;;;;;;9.47;4.70;;;33.10;80.60;;;;;;1874816;75;21191;-80
2022/07/06 06:31:30;;;;;;;9.63;4.20;;;33.10;81.00;;;;;;1836624;76;21223;-81
2022/07/06 06:34:02;;;;;;;7.33;4.12;;;33.20;80.90;;;;;;1857717;76;21088;-82
2022/07/06 06:36:34;;;;;;;8.63;3.70;;;33.20;80.80;;;;;;1837882;76;21126;-82
2022/07/06 06:39:10;;;;;;;9.10;3.45;;;33.30;79.80;;;;;;1844758;76;21225;-80
2022/07/06 06:41:44;;;;;;;5.95;2.90;;;33.30;80.00;;;;;;1850539;76;21201;-81
2022/07/06 06:44:15;;;;;;;7.60;3.27;;;33.40;79.60;;;;;;1870496;75;21055;-79
2022/07/06 06:46:46;;;;;;;7.80;3.20;;;33.50;79.40;;;;;;1871539;75;21163;-81
2022/07/06 06:49:17;;;;;;;6.28;3.80;;;33.50;78.30;;;;;;1880340;75;21124;-79
2022/07/06 06:51:50;;;;;;;5.75;3.12;;;33.50;77.40;;;;;;1886380;75;21680;-79
2022/07/06 06:54:22;;;;;;;5.87;3.00;;;33.50;77.70;;;;;;1871980;75;21649;-80
2022/07/06 06:56:56;;;;;;;12.20;6.12;;;33.50;79.50;;;;;;1883966;75;21190;-79
2022/07/06 06:59:27;;;;;;;8.93;3.80;;;33.50;78.10;;;;;;1875282;73;21119;-84
2022/07/06 07:01:58;;;;;;;6.53;4.72;;;33.60;77.80;;;;;;1869367;75;21129;-82
2022/07/06 07:04:30;;;;;;;6.12;3.02;;;33.60;78.20;;;;;;1937938;74;21588;-82
2022/07/06 07:07:01;;;;;;;7.58;3.15;;;33.50;80.00;;;;;;1929562;73;21218;-81
2022/07/06 07:09:33;;;;;;;11.18;5.40;;;33.50;77.60;;;;;;1934630;74;21650;-82
2022/07/06 07:12:04;;;;;;;6.65;3.00;;;33.50;77.40;;;;;;1883611;75;21139;-82
2022/07/06 07:14:35;;;;;;;7.97;3.58;;;33.50;78.50;;;;;;1937672;73;21614;-81
2022/07/06 07:17:05;;;;;;;6.08;2.90;;;33.40;78.30;;;;;;1887022;76;22200;-81
2022/07/06 07:19:36;;;;;;;4.78;2.50;;;33.50;78.10;;;;;;1933619;73;21625;-82
2022/07/06 07:22:07;;;;;;;6.35;2.60;;;33.50;76.70;;;;;;1936599;73;21128;-81
2022/07/06 07:24:38;;;;;;;7.70;4.15;;;33.50;76.90;;;;;;1881495;76;21563;-82
2022/07/06 07:27:09;;;;;;;6.92;3.52;;;33.50;77.20;;;;;;1866935;75;21133;-81
2022/07/06 07:29:40;;;;;;;5.05;2.37;;;33.60;76.10;;;;;;1940991;73;21179;-82
2022/07/06 07:32:11;;;;;;;5.97;3.12;;;33.60;75.80;;;;;;1932286;73;21155;-81
2022/07/06 07:34:42;;;;;;;6.17;2.52;;;33.70;75.60;;;;;;1882600;74;21096;-81
2022/07/06 07:37:13;;;;;;;5.67;2.40;;;33.60;76.20;;;;;;1920669;74;21135;-82
2022/07/06 07:39:44;;;;;;;5.58;3.90;;;33.60;76.00;;;;;;1938100;74;21131;-82
2022/07/06 07:42:15;;;;;;;6.40;3.58;;;33.60;76.60;;;;;;1894322;75;21211;-81
2022/07/06 07:44:47;;;;;;;7.70;2.85;;;33.60;76.80;;;;;;1924331;74;21595;-82
2022/07/06 07:47:18;;;;;;;5.12;2.58;;;33.50;76.90;;;;;;1917257;73;21116;-81
2022/07/06 07:49:49;;;;;;;7.12;3.95;;;33.50;77.40;;;;;;1886090;74;21158;-83
2022/07/06 07:52:20;;;;;;;3.35;2.20;;;33.40;76.70;;;;;;1930263;74;21222;-81
2022/07/06 07:54:52;;;;;;;6.58;3.20;;;33.40;75.80;;;;;;1938834;73;21107;-82
2022/07/06 07:57:24;;;;;;;4.78;2.75;;;33.40;76.20;;;;;;1885251;75;21143;-82
2022/07/06 07:59:55;;;;;;;7.03;3.22;;;33.30;77.00;;;;;;1888992;75;21221;-82
2022/07/06 08:02:25;;;;;;;3.42;2.52;;;33.30;76.10;;;;;;1929290;73;21646;-81
2022/07/06 08:04:56;;;;;;;8.95;5.40;;;33.20;75.10;;;;;;1933509;73;21130;-82
2022/07/06 08:07:27;;;;;;;10.85;7.60;;;33.20;75.80;;;;;;1895362;74;21146;-82
2022/07/06 08:09:58;;;;;;;5.62;3.30;;;33.10;75.90;;;;;;1868386;75;21127;-81
2022/07/06 08:12:30;;;;;;;8.43;5.35;;;33.10;75.60;;;;;;1893712;74;21627;-81
2022/07/06 08:15:01;;;;;;;7.05;3.45;;;33.00;76.00;;;;;;1930433;72;21673;-81
2022/07/06 08:17:32;;;;;;;5.17;2.30;;;33.10;75.30;;;;;;1939683;72;21221;-83
2022/07/06 08:20:03;;;;;;;5.35;3.00;;;33.00;77.00;;;;;;1928463;73;21189;-82
2022/07/06 08:22:36;;;;;;;14.35;6.10;;;33.00;76.10;;;;;;1896236;75;21615;-82
2022/07/06 08:25:10;;;;;;;5.53;2.92;;;33.00;76.70;;;;;;1947472;72;21122;-83
2022/07/06 08:27:41;;;;;;;10.53;6.80;;;33.10;77.00;;;;;;1937236;73;21143;-83
2022/07/06 08:30:13;;;;;;;10.53;4.65;;;33.10;77.00;;;;;;1904748;74;21217;-83
2022/07/06 08:32:45;;;;;;;4.47;2.85;;;33.10;77.40;;;;;;1924416;72;21112;-84
2022/07/06 08:35:20;;;;;;;8.65;2.72;;;33.10;74.80;;;;;;1937629;73;21110;-83
2022/07/06 08:37:53;;;;;;;5.45;2.40;;;33.10;74.90;;;;;;1937438;73;21168;-82
2022/07/06 08:40:24;;;;;;;7.22;2.47;;;33.10;74.10;;;;;;1895400;75;21188;-81
2022/07/06 08:42:56;;;;;;;4.15;2.33;;;33.10;74.10;;;;;;1890323;75;21214;-83
2022/07/06 08:45:28;;;;;;;9.80;3.72;;;33.20;74.50;;;;;;1935408;72;21168;-82
2022/07/06 08:48:01;;;;;;;6.83;2.35;;;33.20;75.40;;;;;;1935348;72;21185;-83
2022/07/06 08:50:33;;;;;;;3.62;1.80;;;33.10;75.30;;;;;;1893924;74;21156;-83
2022/07/06 08:53:05;;;;;;;4.00;1.77;;;33.10;75.70;;;;;;1942367;73;21601;-83
2022/07/06 08:55:36;;;;;;;4.58;1.75;;;33.20;74.30;;;;;;1933709;73;21127;-83
2022/07/06 08:58:08;;;;;;;6.78;1.85;;;33.10;74.80;;;;;;1893044;75;21601;-84
2022/07/06 09:00:40;;;;;;;4.15;1.47;;;33.10;74.80;;;;;;1938512;72;21173;-84
2022/07/06 09:03:13;;;;;;;4.35;2.12;;;33.10;75.00;;;;;;1938076;72;21178;-83
2022/07/06 09:05:47;;;;;;;5.00;2.65;;;33.00;75.30;;;;;;1895773;75;21091;-82
2022/07/06 09:08:20;;;;;;;4.60;2.60;;;33.00;76.20;;;;;;1843898;76;21575;-81
2022/07/06 09:10:51;;;;;;;6.85;2.35;;;33.00;76.50;;;;;;1884362;75;21681;-83
2022/07/06 09:13:23;;;;;;;7.87;3.77;;;33.00;77.30;;;;;;1870977;75;21161;-82
2022/07/06 09:15:56;;;;;;;9.40;3.67;;;33.00;78.80;;;;;;1843179;77;21095;-83
2022/07/06 09:18:33;;;;;;;7.55;3.50;;;32.90;79.70;;;;;;1884532;74;21048;-81
2022/07/06 09:21:32;;;;;;;12.37;4.03;;;32.70;80.80;;;;;;1895771;75;21151;-81
2022/07/06 09:24:05;;;;;;;7.30;4.10;;;32.50;82.00;;;;;;1897734;75;21146;-81
2022/07/06 09:26:44;;;;;;;9.90;3.75;;;32.30;82.90;;;;;;1898934;75;21087;-82
2022/07/06 09:29:19;;;;;;;10.10;3.75;;;32.10;83.90;;;;;;1899483;75;21120;-83
2022/07/06 09:32:05;;;;;;;6.70;3.87;;;32.00;84.80;;;;;;1897924;75;21117;-83
2022/07/06 09:34:39;;;;;;;7.25;3.65;;;31.90;85.90;;;;;;1901144;75;21224;-83
2022/07/06 09:37:12;;;;;;;7.42;3.87;;;31.70;86.50;;;;;;1895016;75;21188;-83
2022/07/06 09:39:44;;;;;;;9.35;4.37;;;31.60;87.00;;;;;;1899532;75;21095;-82
2022/07/06 09:42:17;;;;;;;8.48;4.22;;;31.50;87.70;;;;;;1895758;75;21157;-84
2022/07/06 09:44:49;;;;;;;7.15;4.37;;;31.50;88.20;;;;;;1897114;75;21058;-82
2022/07/06 09:47:22;;;;;;;10.28;5.60;;;31.50;89.00;;;;;;1908872;74;21130;-82
2022/07/06 09:49:55;;;;;;;8.93;5.42;;;31.50;87.80;;;;;;1904398;74;21103;-82
2022/07/06 09:52:26;;;;;;;7.65;4.10;;;31.50;88.10;;;;;;1891236;74;21039;-82
2022/07/06 09:54:57;;;;;;;7.08;3.75;;;31.50;87.80;;;;;;1889922;75;21083;-81
2022/07/06 09:57:28;;;;;;;8.23;3.83;;;31.50;87.70;;;;;;1899896;75;21132;-82
2022/07/06 10:00:00;;;;;;;9.00;4.87;;;31.40;87.60;;;;;;1894075;75;21102;-82
2022/07/06 10:02:31;;;;;;;7.37;4.15;;;31.40;87.90;;;;;;1865427;76;21171;-81
2022/07/06 10:05:04;;;;;;;8.50;4.20;;;31.30;87.90;;;;;;1926378;74;21093;-80
2022/07/06 10:07:35;;;;;;;8.40;4.00;;;31.30;88.00;;;;;;1880893;75;21073;-81
2022/07/06 10:10:07;;;;;;;12.20;4.50;;;31.30;88.50;;;;;;1886546;75;21152;-82
2022/07/06 10:12:40;;;;;;;57.90;9.70;;;31.20;88.80;;;;;;1928545;74;21068;-83
2022/07/06 10:15:12;;;;;;;12.70;5.37;;;31.10;89.30;;;;;;1875376;76;21202;-81
2022/07/06 10:17:43;;;;;;;7.85;4.42;;;31.10;89.40;;;;;;1851534;76;21612;-82
2022/07/06 10:20:16;;;;;;;7.37;3.58;;;31.10;89.40;;;;;;1828835;76;21593;-83
2022/07/06 10:22:48;;;;;;;7.87;4.08;;;31.10;89.10;;;;;;1861585;76;21138;-83
2022/07/06 10:25:20;;;;;;;9.33;4.05;;;31.20;88.50;;;;;;1879912;75;21159;-83
2022/07/06 10:27:52;;;;;;;6.42;3.67;;;31.20;88.60;;;;;;1943916;73;21156;-83
2022/07/06 10:30:25;;;;;;;8.50;3.77;;;31.20;88.20;;;;;;1893325;76;21105;-82
2022/07/06 10:32:59;;;;;;;10.55;4.00;;;31.20;87.70;;;;;;1855230;76;21156;-83
2022/07/06 10:35:30;;;;;;;5.65;3.35;;;31.20;87.90;;;;;;1848519;76;21178;-82
2022/07/06 10:38:04;;;;;;;8.90;4.42;;;31.20;87.70;;;;;;1885730;75;21638;-83
2022/07/06 10:43:10;;;;;;;6.92;3.55;;;31.20;88.30;;;;;;1876755;74;21191;-83
2022/07/06 10:45:43;;;;;;;15.13;4.65;;;31.20;88.50;;;;;;1870259;75;21663;-82
2022/07/06 10:48:17;;;;;;;13.85;4.47;;;31.20;88.80;;;;;;1890120;75;21144;-82
2022/07/06 10:50:51;;;;;;;5.53;3.17;;;31.20;88.70;;;;;;1889196;75;21089;-82
2022/07/06 10:53:24;;;;;;;23.50;5.37;;;31.20;88.60;;;;;;1874189;75;21578;-82
2022/07/06 10:55:57;;;;;;;9.03;4.40;;;31.20;88.40;;;;;;1949555;73;21210;-83
2022/07/06 10:58:30;;;;;;;15.78;4.35;;;31.20;88.40;;;;;;1943611;73;21147;-82
2022/07/06 11:01:02;;;;;;;10.80;3.33;;;31.20;88.20;;;;;;1933458;72;21135;-83
2022/07/06 11:03:35;;;;;;;33.75;7.62;;;31.20;87.90;;;;;;1946244;73;21151;-82
2022/07/06 11:06:09;;;;;;;15.55;5.72;;;31.20;88.20;;;;;;1883685;75;21132;-82
2022/07/06 11:08:42;;;;;;;12.55;4.25;;;31.20;88.20;;;;;;1933297;73;21171;-83
2022/07/06 11:11:19;;;;;;;7.25;3.37;;;31.20;88.30;;;;;;1885712;75;21249;-81
2022/07/06 11:13:50;;;;;;;7.22;3.55;;;31.20;88.10;;;;;;1931479;73;21069;-83
2022/07/06 11:16:23;;;;;;;6.95;3.40;;;31.20;88.00;;;;;;1892450;75;21595;-82
2022/07/06 11:18:56;;;;;;;6.45;3.40;;;31.20;88.90;;;;;;1924969;74;21159;-81
2022/07/06 11:21:30;;;;;;;8.15;3.47;;;31.10;88.10;;;;;;1926571;73;21073;-81
2022/07/06 11:24:01;;;;;;;8.60;3.87;;;31.20;88.30;;;;;;1931665;74;21072;-82
2022/07/06 11:26:35;;;;;;;11.75;3.90;;;31.20;88.30;;;;;;1887770;75;21584;-82
2022/07/06 11:29:09;;;;;;;7.62;4.05;;;31.20;88.40;;;;;;1921627;72;21191;-83
2022/07/06 11:31:43;;;;;;;11.22;3.22;;;31.20;88.00;;;;;;1889198;75;22056;-83
2022/07/06 11:34:16;;;;;;;6.22;3.22;;;31.10;88.00;;;;;;1902338;74;21241;-82
2022/07/06 11:36:47;;;;;;;5.65;3.35;;;31.00;87.70;;;;;;1891850;75;21166;-82
2022/07/06 11:39:18;;;;;;;6.80;3.10;;;31.00;88.10;;;;;;1919265;73;21096;-83
2022/07/06 11:41:49;;;;;;;10.18;3.50;;;30.90;88.30;;;;;;1933924;72;21179;-82
2022/07/06 11:44:20;;;;;;;11.43;4.00;;;30.90;88.80;;;;;;1888343;74;21132;-82
2022/07/06 11:46:51;;;;;;;12.73;5.72;;;30.90;88.60;;;;;;1911675;74;21594;-82
2022/07/06 11:49:22;;;;;;;19.57;9.10;;;30.90;88.80;;;;;;1902496;74;21136;-82
2022/07/06 11:51:53;;;;;;;13.58;6.58;;;30.80;88.60;;;;;;1933516;74;21568;-82
2022/07/06 11:54:26;;;;;;;11.12;5.72;;;30.90;88.90;;;;;;1878200;74;21194;-82
2022/07/06 11:57:03;;;;;;;22.17;8.20;;;30.90;88.80;;;;;;1935490;72;21069;-82
2022/07/06 11:59:33;;;;;;;22.00;7.67;;;30.90;90.60;;;;;;1923148;74;21115;-82
2022/07/06 12:02:06;;;;;;;13.38;6.28;;;30.80;92.00;;;;;;1930885;72;21252;-82
2022/07/06 12:04:40;;;;;;;11.85;4.83;;;30.70;92.10;;;;;;1924629;73;21116;-83
2022/07/06 12:07:13;;;;;;;15.00;5.30;;;30.50;92.40;;;;;;1924126;73;21101;-82
2022/07/06 12:09:46;;;;;;;12.82;5.30;;;30.40;92.40;;;;;;1876330;74;21085;-82
2022/07/06 12:12:17;;;;;;;14.10;5.67;;;30.30;93.10;;;;;;1929352;73;21112;-82
2022/07/06 12:14:48;;;;;;;13.90;5.17;;;30.30;93.00;;;;;;1921979;74;21641;-83
2022/07/06 12:17:19;;;;;;;14.30;5.92;;;30.20;94.30;;;;;;1923516;72;21109;-83
2022/07/06 12:19:53;;;;;;;11.30;6.10;;;30.20;95.00;;;;;;1929029;73;21101;-81
2022/07/06 12:22:26;;;;;;;12.75;6.22;;;30.10;95.30;;;;;;1883580;75;21708;-83
2022/07/06 12:24:57;;;;;;;9.75;6.28;;;30.00;95.60;;;;;;1854293;75;21112;-81
2022/07/06 12:27:31;;;;;;;10.40;5.58;;;30.00;95.80;;;;;;1936835;74;21200;-82
2022/07/06 12:30:04;;;;;;;12.50;5.92;;;29.90;95.70;;;;;;1892796;76;21141;-81
2022/07/06 12:32:36;;;;;;;10.72;6.10;;;29.90;95.70;;;;;;1935938;72;21183;-80
2022/07/06 12:35:10;;;;;;;15.88;6.00;;;30.00;95.40;;;;;;1896223;74;21159;-81
2022/07/06 12:37:47;;;;;;;12.55;5.70;;;30.00;95.30;;;;;;1890768;74;21132;-83
2022/07/06 12:40:19;;;;;;;8.73;5.60;;;29.90;95.40;;;;;;1926029;73;21069;-82
2022/07/06 12:42:51;;;;;;;9.60;5.35;;;29.90;95.30;;;;;;1927185;73;21582;-81
2022/07/06 12:45:48;;;;;;;10.10;4.80;;;29.90;94.90;;;;;;1924332;74;21213;-82
2022/07/06 12:48:19;;;;;;;11.70;4.45;;;29.90;94.30;;;;;;1883039;75;21188;-82
2022/07/06 12:50:51;;;;;;;8.15;4.92;;;29.90;94.10;;;;;;1891014;74;21214;-82
2022/07/06 12:53:24;;;;;;;10.23;4.67;;;29.90;94.30;;;;;;1853931;75;21151;-82
2022/07/06 12:55:58;;;;;;;11.75;4.55;;;29.80;94.20;;;;;;1887871;74;21657;-82
2022/07/06 12:58:29;;;;;;;12.50;5.28;;;29.80;94.60;;;;;;1874463;76;21140;-82
2022/07/06 13:01:00;;;;;;;12.73;5.00;;;29.80;94.80;;;;;;1875914;75;21615;-82
2022/07/06 13:03:35;;;;;;;10.85;4.78;;;29.70;95.00;;;;;;1871810;75;21120;-82
2022/07/06 13:06:07;;;;;;;11.15;4.65;;;29.60;95.00;;;;;;1921588;72;21130;-82
2022/07/06 13:08:38;;;;;;;7.90;4.92;;;29.60;95.00;;;;;;1926470;73;21160;-82
2022/07/06 13:11:09;;;;;;;8.45;4.53;;;29.60;95.20;;;;;;1880720;75;21058;-83
2022/07/06 13:13:42;;;;;;;6.78;3.60;;;29.50;95.10;;;;;;1886344;74;21870;-82
2022/07/06 13:16:13;;;;;;;9.88;3.95;;;29.50;94.40;;;;;;1931312;72;21534;-83